createdAt,value
2018-09-08T00:00:57.897Z,5.50
2018-09-08T00:03:02.095Z,6.30
2018-09-08T00:05:04.450Z,6.30
2018-09-08T00:07:12.370Z,4.83
2018-09-08T00:09:14.850Z,5.23
2018-09-08T00:11:17.066Z,5.00
2018-09-08T00:13:19.216Z,4.80
2018-09-08T00:15:27.233Z,4.60
2018-09-08T00:17:35.082Z,3.97
2018-09-08T00:19:42.979Z,4.10
2018-09-08T00:21:50.939Z,3.80
2018-09-08T00:23:58.778Z,4.00
2018-09-08T00:26:06.750Z,5.00
2018-09-08T00:28:13.647Z,3.40
2018-09-08T00:30:15.894Z,3.80
2018-09-08T00:32:19.320Z,4.07
2018-09-08T00:34:21.463Z,3.33
2018-09-08T00:36:30.767Z,3.57
2018-09-08T00:38:33.003Z,3.47
2018-09-08T00:40:35.151Z,3.53
2018-09-08T00:43:40.870Z,3.70
2018-09-08T00:45:43.102Z,3.10
2018-09-08T00:47:45.199Z,3.07
2018-09-08T00:49:47.590Z,2.83
2018-09-08T00:51:49.874Z,3.10
2018-09-08T00:53:52.035Z,2.90
2018-09-08T00:55:54.468Z,2.90
2018-09-08T00:57:56.649Z,3.00
2018-09-08T00:59:58.803Z,2.70
2018-09-08T01:02:00.925Z,3.00
2018-09-08T01:04:03.121Z,3.27
2018-09-08T01:06:05.396Z,2.50
2018-09-08T01:08:07.583Z,3.10
2018-09-08T01:10:09.885Z,2.80
2018-09-08T01:12:12.050Z,3.00
2018-09-08T01:14:14.170Z,3.17
2018-09-08T01:16:16.365Z,2.70
2018-09-08T01:18:18.520Z,3.00
2018-09-08T01:20:20.817Z,3.23
2018-09-08T01:22:22.990Z,3.03
2018-09-08T01:24:25.461Z,2.63
2018-09-08T01:26:27.829Z,2.90
2018-09-08T01:28:29.973Z,2.50
2018-09-08T01:30:32.249Z,2.83
2018-09-08T01:32:34.410Z,2.80
2018-09-08T01:34:36.666Z,2.80
2018-09-08T01:36:38.830Z,2.70
2018-09-08T01:38:41.026Z,3.00
2018-09-08T01:40:43.198Z,2.53
2018-09-08T01:42:45.394Z,2.90
2018-09-08T01:44:47.516Z,3.07
2018-09-08T01:46:49.710Z,2.83
2018-09-08T01:48:51.990Z,3.27
2018-09-08T01:50:54.500Z,2.93
2018-09-08T01:52:56.670Z,3.20
2018-09-08T01:54:59.658Z,2.90
2018-09-08T01:57:01.798Z,3.20
2018-09-08T01:59:04.118Z,3.20
2018-09-08T02:01:06.402Z,3.60
2018-09-08T02:03:08.529Z,3.03
2018-09-08T02:05:10.709Z,3.23
2018-09-08T02:07:12.858Z,3.20
2018-09-08T02:09:14.994Z,3.10
2018-09-08T02:11:17.143Z,3.10
2018-09-08T02:13:19.326Z,3.47
2018-09-08T02:15:21.531Z,3.10
2018-09-08T02:17:23.714Z,4.27
2018-09-08T02:19:25.866Z,3.60
2018-09-08T02:21:28.060Z,3.00
2018-09-08T02:25:47.199Z,3.17
2018-09-08T02:27:49.371Z,3.10
2018-09-08T02:29:51.490Z,3.30
2018-09-08T02:31:53.779Z,3.27
2018-09-08T02:33:55.920Z,3.40
2018-09-08T02:35:58.098Z,2.90
2018-09-08T02:38:00.262Z,3.80
2018-09-08T02:40:02.495Z,3.20
2018-09-08T02:42:04.842Z,3.40
2018-09-08T02:44:07.054Z,2.93
2018-09-08T02:46:09.379Z,2.87
2018-09-08T02:48:11.593Z,3.20
2018-09-08T02:50:33.751Z,3.07
2018-09-08T02:52:35.006Z,3.67
2018-09-08T02:54:36.301Z,3.40
2018-09-08T02:56:37.552Z,3.30
2018-09-08T02:58:38.986Z,3.40
2018-09-08T03:00:40.230Z,3.20
2018-09-08T03:02:41.490Z,3.10
2018-09-08T03:04:43.019Z,3.20
2018-09-08T03:06:44.257Z,3.27
2018-09-08T03:08:45.507Z,3.50
2018-09-08T03:10:46.792Z,3.40
2018-09-08T03:12:48.034Z,3.33
2018-09-08T03:14:49.287Z,3.23
2018-09-08T03:16:50.559Z,3.40
2018-09-08T03:18:51.788Z,3.43
2018-09-08T03:20:53.041Z,3.30
2018-09-08T03:22:54.302Z,3.63
2018-09-08T03:24:55.574Z,3.70
2018-09-08T03:26:56.847Z,4.07
2018-09-08T03:28:58.139Z,3.60
2018-09-08T03:30:59.378Z,3.67
2018-09-08T03:33:00.615Z,3.40
2018-09-08T03:35:02.037Z,3.57
2018-09-08T03:37:03.276Z,4.23
2018-09-08T03:39:04.848Z,4.13
2018-09-08T03:41:06.119Z,4.10
2018-09-08T03:43:07.371Z,3.63
2018-09-08T03:45:08.614Z,3.77
2018-09-08T03:47:10.230Z,4.23
2018-09-08T03:49:11.522Z,4.13
2018-09-08T03:51:12.779Z,3.83
2018-09-08T03:53:14.040Z,4.33
2018-09-08T03:55:15.283Z,3.67
2018-09-08T03:57:16.524Z,4.20
2018-09-08T03:59:17.822Z,3.87
2018-09-08T04:01:19.101Z,4.20
2018-09-08T04:03:21.250Z,4.97
2018-09-08T04:05:23.755Z,4.47
2018-09-08T04:07:25.866Z,4.67
2018-09-08T04:09:27.999Z,4.10
2018-09-08T04:11:30.159Z,4.90
2018-09-08T04:13:32.294Z,4.23
2018-09-08T04:15:34.406Z,4.80
2018-09-08T04:17:36.558Z,4.80
2018-09-08T04:19:38.725Z,5.00
2018-09-08T04:21:40.874Z,5.50
2018-09-08T04:23:43.023Z,4.27
2018-09-08T04:25:45.175Z,4.70
2018-09-08T04:27:47.354Z,4.90
2018-09-08T04:29:49.679Z,5.40
2018-09-08T04:31:51.822Z,5.37
2018-09-08T04:33:54.056Z,5.23
2018-09-08T04:35:56.187Z,5.27
2018-09-08T04:37:58.382Z,4.97
2018-09-08T04:40:00.567Z,5.10
2018-09-08T04:42:02.882Z,5.50
2018-09-08T04:44:05.095Z,5.53
2018-09-08T04:46:07.254Z,4.97
2018-09-08T04:48:09.523Z,5.03
2018-09-08T04:50:11.694Z,5.20
2018-09-08T04:52:13.884Z,6.90
2018-09-08T04:54:16.046Z,5.40
2018-09-08T04:56:18.191Z,5.70
2018-09-08T04:58:20.367Z,4.90
2018-09-08T05:00:22.509Z,5.73
2018-09-08T05:02:24.690Z,6.20
2018-09-08T05:04:26.859Z,5.53
2018-09-08T05:06:29.011Z,5.97
2018-09-08T05:08:31.160Z,5.53
2018-09-08T05:10:33.335Z,5.33
2018-09-08T05:12:35.586Z,5.97
2018-09-08T05:14:37.718Z,6.03
2018-09-08T05:16:39.938Z,6.20
2018-09-08T05:18:42.069Z,7.20
2018-09-08T05:20:45.030Z,5.87
2018-09-08T05:22:47.186Z,6.43
2018-09-08T05:24:49.357Z,6.30
2018-09-08T05:26:51.486Z,5.63
2018-09-08T05:28:53.661Z,5.80
2018-09-08T05:30:55.786Z,6.53
2018-09-08T05:32:58.199Z,7.03
2018-09-08T05:35:00.378Z,6.80
2018-09-08T05:37:02.545Z,6.70
2018-09-08T05:39:05.707Z,6.50
2018-09-08T05:41:07.859Z,6.40
2018-09-08T05:43:16.622Z,5.83
2018-09-08T05:45:18.778Z,5.93
2018-09-08T05:47:21.006Z,6.20
2018-09-08T05:49:23.158Z,6.67
2018-09-08T05:51:25.330Z,6.27
2018-09-08T05:53:27.494Z,6.50
2018-09-08T05:55:29.951Z,6.60
2018-09-08T05:57:32.235Z,6.77
2018-09-08T05:59:34.595Z,6.13
2018-09-08T06:01:36.780Z,6.93
2018-09-08T06:03:38.950Z,6.80
2018-09-08T06:05:41.099Z,5.70
2018-09-08T06:07:43.289Z,6.53
2018-09-08T06:09:45.486Z,6.80
2018-09-08T06:11:47.711Z,7.17
2018-09-08T06:13:49.895Z,7.20
2018-09-08T06:15:52.026Z,7.30
2018-09-08T06:17:54.165Z,7.93
2018-09-08T06:19:56.554Z,6.93
2018-09-08T06:22:00.653Z,7.37
2018-09-08T06:24:02.826Z,7.73
2018-09-08T06:26:04.969Z,6.60
2018-09-08T06:28:07.148Z,7.30
2018-09-08T06:30:09.290Z,7.67
2018-09-08T06:32:11.534Z,6.97
2018-09-08T06:34:13.843Z,6.73
2018-09-08T06:36:16.055Z,7.30
2018-09-08T06:38:18.371Z,7.80
2018-09-08T06:40:20.621Z,6.50
2018-09-08T06:42:22.761Z,6.57
2018-09-08T06:44:24.970Z,6.90
2018-09-08T06:46:27.135Z,6.40
2018-09-08T06:48:29.290Z,7.33
2018-09-08T06:50:31.444Z,7.30
2018-09-08T06:52:33.623Z,6.90
2018-09-08T06:54:35.782Z,6.40
2018-09-08T06:56:37.922Z,6.70
2018-09-08T06:58:40.057Z,7.57
2018-09-08T07:00:42.224Z,6.30
2018-09-08T07:02:44.378Z,6.27
2018-09-08T07:04:46.498Z,6.77
2018-09-08T07:06:48.663Z,7.03
2018-09-08T07:08:50.886Z,6.67
2018-09-08T07:10:53.026Z,6.67
2018-09-08T07:12:55.134Z,6.23
2018-09-08T07:14:57.456Z,6.10
2018-09-08T07:16:59.561Z,6.70
2018-09-08T07:19:01.694Z,6.20
2018-09-08T07:21:05.726Z,5.80
2018-09-08T07:23:07.854Z,5.83
2018-09-08T07:25:10.069Z,6.37
2018-09-08T07:27:12.225Z,6.43
2018-09-08T07:29:15.792Z,5.80
2018-09-08T07:31:17.931Z,5.53
2018-09-08T07:33:20.059Z,6.50
2018-09-08T07:35:22.254Z,6.27
2018-09-08T07:37:24.599Z,5.73
2018-09-08T07:39:26.696Z,6.20
2018-09-08T07:41:28.839Z,6.10
2018-09-08T07:43:31.279Z,5.70
2018-09-08T07:45:33.454Z,6.43
2018-09-08T07:47:35.594Z,6.00
2018-09-08T07:49:37.759Z,5.60
2018-09-08T07:51:39.870Z,6.37
2018-09-08T07:53:42.983Z,5.87
2018-09-08T07:55:45.035Z,6.40
2018-09-08T07:57:48.732Z,5.80
2018-09-08T07:59:50.882Z,5.60
2018-09-08T08:01:53.210Z,5.73
2018-09-08T08:03:55.339Z,5.30
2018-09-08T08:05:59.730Z,5.80
2018-09-08T08:08:01.970Z,6.40
2018-09-08T08:10:04.085Z,5.03
2018-09-08T08:12:06.356Z,6.00
2018-09-08T08:14:08.478Z,6.17
2018-09-08T08:16:10.602Z,5.50
2018-09-08T08:18:13.054Z,5.73
2018-09-08T08:20:15.173Z,5.50
2018-09-08T08:22:17.282Z,6.40
2018-09-08T08:24:19.461Z,6.50
2018-09-08T08:26:21.564Z,5.63
2018-09-08T08:28:23.710Z,6.10
2018-09-08T08:30:25.834Z,5.17
2018-09-08T08:32:27.951Z,5.87
2018-09-08T08:34:30.053Z,6.27
2018-09-08T08:36:32.187Z,6.63
2018-09-08T08:38:34.465Z,7.40
2018-09-08T08:40:36.610Z,7.17
2018-09-08T08:42:38.749Z,7.20
2018-09-08T08:44:40.989Z,7.27
2018-09-08T08:46:43.180Z,6.57
2018-09-08T08:48:45.339Z,6.90
2018-09-08T08:50:59.416Z,7.00
2018-09-08T08:53:13.179Z,6.87
2018-09-08T08:55:14.418Z,6.43
2018-09-08T08:57:17.333Z,6.53
2018-09-08T08:59:19.515Z,7.37
2018-09-08T09:01:21.614Z,6.93
2018-09-08T09:03:23.723Z,6.83
2018-09-08T09:05:25.856Z,5.93
2018-09-08T09:07:27.953Z,5.53
2018-09-08T09:09:30.074Z,6.17
2018-09-08T09:11:32.516Z,6.37
2018-09-08T09:13:34.465Z,7.23
2018-09-08T09:15:36.799Z,6.03
2018-09-08T09:17:38.649Z,6.60
2018-09-08T09:19:52.430Z,6.23
2018-09-08T09:22:06.336Z,6.00
2018-09-08T09:24:23.391Z,7.37
2018-09-08T09:26:25.120Z,6.40
2018-09-08T09:28:27.261Z,6.30
2018-09-08T09:30:29.375Z,6.20
2018-09-08T09:32:31.491Z,5.80
2018-09-08T09:34:33.938Z,6.20
2018-09-08T09:36:36.059Z,6.13
2018-09-08T09:38:38.186Z,6.43
2018-09-08T09:40:40.370Z,5.90
2018-09-08T09:42:42.519Z,6.80
2018-09-08T09:44:44.654Z,6.77
2018-09-08T09:46:46.818Z,6.50
2018-09-08T09:48:48.985Z,5.87
2018-09-08T09:50:51.278Z,6.23
2018-09-08T09:52:53.509Z,6.17
2018-09-08T09:54:55.625Z,5.50
2018-09-08T09:56:57.778Z,5.17
2018-09-08T09:58:59.887Z,5.80
2018-09-08T10:01:07.645Z,6.13
2018-09-08T10:03:09.770Z,5.33
2018-09-08T10:05:13.954Z,6.23
2018-09-08T10:07:16.058Z,5.70
2018-09-08T10:09:18.371Z,5.80
2018-09-08T10:11:20.523Z,4.70
2018-09-08T10:13:22.667Z,5.23
2018-09-08T10:15:24.815Z,5.00
2018-09-08T10:17:27.106Z,4.40
2018-09-08T10:19:29.274Z,4.50
2018-09-08T10:21:31.535Z,4.90
2018-09-08T10:23:33.806Z,4.40
2018-09-08T10:25:35.935Z,3.70
2018-09-08T10:27:38.073Z,4.83
2018-09-08T10:31:49.939Z,4.20
2018-09-08T10:33:51.600Z,3.20
2018-09-08T10:35:53.779Z,3.60
2018-09-08T10:37:55.898Z,3.10
2018-09-08T10:39:58.018Z,3.73
2018-09-08T10:42:00.799Z,2.97
2018-09-08T10:44:03.219Z,2.93
2018-09-08T10:46:05.367Z,2.90
2018-09-08T10:48:07.526Z,2.60
2018-09-08T10:50:10.022Z,2.77
2018-09-08T10:52:44.522Z,2.80
2018-09-08T10:54:47.258Z,2.90
2018-09-08T10:56:49.381Z,2.90
2018-09-08T10:58:51.570Z,2.60
2018-09-08T11:00:54.052Z,2.90
2018-09-08T11:02:56.287Z,3.37
2018-09-08T11:04:58.527Z,3.17
2018-09-08T11:07:00.954Z,2.73
2018-09-08T11:09:03.910Z,2.90
2018-09-08T11:11:06.034Z,3.00
2018-09-08T11:13:08.205Z,2.90
2018-09-08T11:15:10.620Z,2.60
2018-09-08T11:17:12.771Z,2.63
2018-09-08T11:19:14.930Z,3.00
2018-09-08T11:21:17.079Z,2.70
2018-09-08T11:23:19.238Z,2.60
2018-09-08T11:25:21.374Z,2.80
2018-09-08T11:27:23.623Z,2.70
2018-09-08T11:29:25.778Z,2.90
2018-09-08T11:31:27.929Z,2.70
2018-09-08T11:33:30.248Z,2.97
2018-09-08T11:35:32.375Z,2.60
2018-09-08T11:37:34.567Z,3.57
2018-09-08T11:39:36.663Z,2.97
2018-09-08T11:41:38.879Z,3.03
2018-09-08T11:43:41.466Z,2.87
2018-09-08T11:45:43.663Z,2.87
2018-09-08T11:47:45.794Z,3.30
2018-09-08T11:49:47.960Z,3.07
2018-09-08T11:51:50.091Z,3.03
2018-09-08T11:53:52.230Z,3.30
2018-09-08T11:55:54.465Z,3.30
2018-09-08T11:57:56.630Z,3.10
2018-09-08T11:59:58.735Z,2.90
2018-09-08T12:02:01.016Z,3.20
2018-09-08T12:04:03.162Z,2.70
2018-09-08T12:06:05.367Z,3.30
2018-09-08T12:08:07.593Z,3.00
2018-09-08T12:10:09.704Z,3.30
2018-09-08T12:12:11.858Z,3.00
2018-09-08T12:14:14.137Z,3.23
2018-09-08T12:16:16.298Z,4.67
2018-09-08T12:18:18.434Z,3.80
2018-09-08T12:20:21.189Z,3.80
2018-09-08T12:22:23.338Z,3.70
2018-09-08T12:24:25.475Z,4.00
2018-09-08T12:26:27.767Z,4.30
2018-09-08T12:28:29.913Z,3.70
2018-09-08T12:30:32.075Z,3.87
2018-09-08T12:32:34.290Z,4.40
2018-09-08T12:34:36.367Z,4.20
2018-09-08T12:36:38.478Z,3.97
2018-09-08T12:38:40.644Z,4.20
2018-09-08T12:40:43.343Z,3.90
2018-09-08T12:42:45.503Z,3.53
2018-09-08T12:44:48.067Z,3.90
2018-09-08T12:46:50.232Z,3.50
2018-09-08T12:48:52.394Z,3.13
2018-09-08T12:50:54.579Z,3.40
2018-09-08T12:52:56.720Z,3.40
2018-09-08T12:54:58.843Z,3.20
2018-09-08T12:57:01.022Z,3.20
2018-09-08T12:59:03.218Z,3.53
2018-09-08T13:01:05.371Z,3.50
2018-09-08T13:03:07.562Z,3.50
2018-09-08T13:05:09.691Z,2.90
2018-09-08T13:07:11.814Z,3.37
2018-09-08T13:09:14.187Z,3.37
2018-09-08T13:11:16.313Z,3.23
2018-09-08T13:13:18.556Z,3.20
2018-09-08T13:15:21.078Z,3.40
2018-09-08T13:17:23.220Z,3.50
2018-09-08T13:19:25.371Z,3.50
2018-09-08T13:21:27.634Z,3.10
2018-09-08T13:23:29.778Z,2.70
2018-09-08T13:25:31.950Z,3.10
2018-09-08T13:27:34.144Z,2.87
2018-09-08T13:29:36.569Z,2.73
2018-09-08T13:31:38.796Z,2.53
2018-09-08T13:33:40.959Z,2.60
2018-09-08T13:35:43.081Z,2.57
2018-09-08T13:37:45.300Z,3.17
2018-09-08T13:39:47.836Z,2.97
2018-09-08T13:41:49.983Z,2.90
2018-09-08T13:43:52.202Z,2.70
2018-09-08T13:45:54.358Z,3.10
2018-09-08T13:47:56.519Z,2.53
2018-09-08T13:49:58.670Z,2.60
2018-09-08T13:52:00.782Z,2.40
2018-09-08T13:54:02.928Z,3.10
2018-09-08T13:56:05.467Z,2.90
2018-09-08T13:58:07.611Z,3.03
2018-09-08T14:00:09.861Z,2.80
2018-09-08T14:02:11.995Z,2.37
2018-09-08T14:04:14.197Z,2.80
2018-09-08T14:06:16.264Z,2.70
2018-09-08T14:08:18.379Z,2.70
2018-09-08T14:10:20.683Z,3.00
2018-09-08T14:12:22.807Z,3.00
2018-09-08T14:14:24.946Z,3.20
2018-09-08T14:16:27.099Z,3.20
2018-09-08T14:18:29.250Z,3.77
2018-09-08T14:20:31.376Z,3.37
2018-09-08T14:22:33.671Z,3.47
2018-09-08T14:24:35.833Z,3.07
2018-09-08T14:26:38.052Z,3.37
2018-09-08T14:28:40.581Z,3.60
2018-09-08T14:30:42.672Z,2.77
2018-09-08T14:32:44.794Z,3.80
2018-09-08T14:34:47.446Z,4.03
2018-09-08T14:36:49.645Z,4.97
2018-09-08T14:38:51.781Z,3.33
2018-09-08T14:40:54.177Z,3.20
2018-09-08T14:42:56.374Z,3.60
2018-09-08T14:44:58.531Z,3.50
2018-09-08T14:47:00.954Z,3.73
2018-09-08T14:49:03.227Z,3.37
2018-09-08T14:51:05.405Z,4.10
2018-09-08T14:53:07.571Z,3.57
2018-09-08T14:55:09.694Z,3.80
2018-09-08T14:57:11.887Z,3.40
2018-09-08T14:59:14.325Z,3.60
2018-09-08T15:01:16.462Z,3.50
2018-09-08T15:03:18.595Z,3.70
2018-09-08T15:05:21.039Z,3.83
2018-09-08T15:07:23.143Z,3.30
2018-09-08T15:09:25.291Z,3.23
2018-09-08T15:11:27.599Z,3.37
2018-09-08T15:13:29.752Z,3.50
2018-09-08T15:15:31.903Z,3.80
2018-09-08T15:17:34.298Z,3.30
2018-09-08T15:19:36.493Z,4.00
2018-09-08T15:21:38.612Z,3.37
2018-09-08T15:23:40.782Z,3.40
2018-09-08T15:25:42.943Z,3.80
2018-09-08T15:27:45.071Z,3.97
2018-09-08T15:29:47.479Z,3.40
2018-09-08T15:31:49.606Z,3.50
2018-09-08T15:33:51.750Z,3.30
2018-09-08T15:35:53.879Z,3.50
2018-09-08T15:37:56.042Z,3.40
2018-09-08T15:39:58.155Z,3.33
2018-09-08T15:42:00.286Z,3.00
2018-09-08T15:44:02.658Z,3.63
2018-09-08T15:46:04.865Z,3.63
2018-09-08T15:48:06.967Z,3.00
2018-09-08T15:50:09.339Z,4.33
2018-09-08T15:52:11.434Z,3.57
2018-09-08T15:54:13.876Z,3.30
2018-09-08T15:56:16.010Z,3.60
2018-09-08T15:58:18.302Z,3.63
2018-09-08T16:00:20.383Z,3.60
2018-09-08T16:02:22.910Z,3.60
2018-09-08T16:04:25.097Z,4.03
2018-09-08T16:06:27.150Z,3.50
2018-09-08T16:08:29.423Z,3.47
2018-09-08T16:10:32.870Z,3.23
2018-09-08T16:12:35.027Z,3.87
2018-09-08T16:14:37.151Z,3.53
2018-09-08T16:16:39.286Z,3.90
2018-09-08T16:18:41.526Z,3.27
2018-09-08T16:20:43.662Z,5.13
2018-09-08T16:22:45.762Z,3.60
2018-09-08T16:24:47.923Z,3.73
2018-09-08T16:26:50.425Z,3.60
2018-09-08T16:28:52.704Z,3.63
2018-09-08T16:30:55.424Z,3.80
2018-09-08T16:32:57.826Z,3.50
2018-09-08T16:34:59.955Z,4.60
2018-09-08T16:37:02.072Z,4.07
2018-09-08T16:39:07.370Z,4.90
2018-09-08T16:41:09.511Z,4.20
2018-09-08T16:43:11.719Z,4.40
2018-09-08T16:45:13.907Z,3.90
2018-09-08T16:47:16.083Z,3.60
2018-09-08T16:49:18.211Z,3.37
2018-09-08T16:51:20.339Z,3.70
2018-09-08T16:53:22.678Z,4.40
2018-09-08T16:55:24.805Z,3.87
2018-09-08T16:57:26.994Z,4.20
2018-09-08T16:59:29.143Z,3.90
2018-09-08T17:01:31.255Z,4.03
2018-09-08T17:03:33.395Z,3.60
2018-09-08T17:05:35.579Z,4.30
2018-09-08T17:07:38.225Z,3.70
2018-09-08T17:09:40.422Z,3.83
2018-09-08T17:11:42.544Z,4.03
2018-09-08T17:13:44.678Z,3.70
2018-09-08T17:15:46.982Z,3.83
2018-09-08T17:17:49.266Z,4.50
2018-09-08T17:19:51.418Z,5.00
2018-09-08T17:21:53.582Z,4.20
2018-09-08T17:23:55.726Z,4.50
2018-09-08T17:25:57.850Z,5.40
2018-09-08T17:28:00.030Z,4.70
2018-09-08T17:30:02.208Z,4.10
2018-09-08T17:32:04.376Z,4.37
2018-09-08T17:34:06.571Z,4.63
2018-09-08T17:36:08.712Z,4.27
2018-09-08T17:38:10.906Z,4.40
2018-09-08T17:40:13.063Z,3.60
2018-09-08T17:42:16.096Z,4.00
2018-09-08T17:44:18.467Z,4.80
2018-09-08T17:46:21.544Z,4.37
2018-09-08T17:48:23.897Z,4.07
2018-09-08T17:50:26.222Z,4.30
2018-09-08T17:52:29.268Z,4.20
2018-09-08T17:54:32.361Z,9.90
2018-09-08T17:56:34.709Z,8.30
2018-09-08T17:58:37.335Z,6.27
2018-09-08T18:00:39.712Z,5.00
2018-09-08T18:02:42.442Z,5.40
2018-09-08T18:04:44.793Z,5.13
2018-09-08T18:06:47.064Z,5.00
2018-09-08T18:08:49.423Z,4.83
2018-09-08T18:10:52.078Z,5.73
2018-09-08T18:12:54.191Z,4.60
2018-09-08T18:14:56.325Z,4.93
2018-09-08T18:16:58.702Z,5.00
2018-09-08T18:19:00.856Z,4.50
2018-09-08T18:21:02.982Z,4.97
2018-09-08T18:23:05.150Z,5.50
2018-09-08T18:25:07.378Z,6.53
2018-09-08T18:27:09.524Z,5.93
2018-09-08T18:29:11.663Z,5.80
2018-09-08T18:31:13.795Z,6.20
2018-09-08T18:33:15.892Z,6.10
2018-09-08T18:35:18.374Z,6.07
2018-09-08T18:37:20.537Z,5.27
2018-09-08T18:39:22.699Z,5.80
2018-09-08T18:41:25.107Z,5.90
2018-09-08T18:43:27.150Z,5.33
2018-09-08T18:45:29.339Z,4.90
2018-09-08T18:47:34.217Z,5.10
2018-09-08T18:49:36.600Z,5.73
2018-09-08T18:51:38.899Z,5.20
2018-09-08T18:53:41.315Z,4.83
2018-09-08T18:55:43.550Z,5.70
2018-09-08T18:57:45.913Z,4.70
2018-09-08T18:59:48.642Z,5.60
2018-09-08T19:01:51.366Z,5.30
2018-09-08T19:03:53.591Z,4.80
2018-09-08T19:05:56.134Z,4.90
2018-09-08T19:07:58.760Z,5.03
2018-09-08T19:10:04.310Z,5.13
2018-09-08T19:12:06.694Z,4.87
2018-09-08T19:14:21.334Z,5.73
2018-09-08T19:16:23.470Z,5.00
2018-09-08T19:18:25.645Z,5.50
2018-09-08T19:20:33.370Z,4.97
2018-09-08T19:22:35.611Z,7.57
2018-09-08T19:24:43.370Z,6.83
2018-09-08T19:26:45.492Z,5.40
2018-09-08T19:28:52.189Z,6.07
2018-09-08T19:30:54.307Z,5.17
2018-09-08T19:32:56.431Z,4.77
2018-09-08T19:35:04.327Z,4.63
2018-09-08T19:37:06.717Z,4.90
2018-09-08T19:39:09.987Z,4.57
2018-09-08T19:41:12.113Z,5.30
2018-09-08T19:43:14.278Z,5.20
2018-09-08T19:45:16.427Z,4.93
2018-09-08T19:47:24.117Z,5.47
2018-09-08T19:49:26.350Z,5.23
2018-09-08T19:51:28.458Z,5.20
2018-09-08T19:53:37.598Z,5.33
2018-09-08T19:55:39.894Z,4.93
2018-09-08T19:58:51.138Z,5.17
2018-09-08T20:00:53.907Z,4.63
2018-09-08T20:02:56.240Z,4.93
2018-09-08T20:04:58.363Z,5.00
2018-09-08T20:07:01.242Z,5.17
2018-09-08T20:09:04.214Z,5.30
2018-09-08T20:11:06.339Z,5.67
2018-09-08T20:13:08.494Z,5.27
2018-09-08T20:15:10.594Z,5.20
2018-09-08T20:17:12.694Z,4.97
2018-09-08T20:19:15.172Z,5.00
2018-09-08T20:21:17.272Z,5.73
2018-09-08T20:23:19.399Z,5.20
2018-09-08T20:25:21.534Z,5.57
2018-09-08T20:27:23.703Z,5.60
2018-09-08T20:29:26.291Z,5.00
2018-09-08T20:31:28.512Z,5.63
2018-09-08T20:33:31.188Z,5.60
2018-09-08T20:35:33.362Z,5.10
2018-09-08T20:37:35.466Z,5.40
2018-09-08T20:39:37.694Z,5.00
2018-09-08T20:41:40.030Z,5.60
2018-09-08T20:43:42.142Z,5.77
2018-09-08T20:45:44.279Z,5.20
2018-09-08T20:47:46.665Z,5.40
2018-09-08T20:49:48.825Z,5.13
2018-09-08T20:51:51.318Z,6.27
2018-09-08T20:53:53.479Z,5.63
2018-09-08T20:55:55.674Z,6.07
2018-09-08T20:57:57.802Z,4.80
2018-09-08T21:00:00.006Z,5.50
2018-09-08T21:02:02.436Z,5.30
2018-09-08T21:04:04.622Z,5.00
2018-09-08T21:06:06.788Z,5.50
2018-09-08T21:08:10.845Z,5.70
2018-09-08T21:10:12.959Z,5.33
2018-09-08T21:12:15.123Z,5.63
2018-09-08T21:14:17.282Z,5.33
2018-09-08T21:16:19.712Z,5.40
2018-09-08T21:18:21.878Z,5.30
2018-09-08T21:20:24.079Z,5.33
2018-09-08T21:22:26.287Z,5.23
2018-09-08T21:24:28.875Z,5.70
2018-09-08T21:26:31.062Z,5.73
2018-09-08T21:28:33.235Z,5.70
2018-09-08T21:30:35.491Z,5.20
2018-09-08T21:32:37.650Z,5.00
2018-09-08T21:34:39.795Z,5.20
2018-09-08T21:36:41.973Z,6.27
2018-09-08T21:38:44.132Z,5.67
2018-09-08T21:40:46.278Z,6.00
2018-09-08T21:44:57.284Z,5.63
2018-09-08T21:46:59.447Z,6.53
2018-09-08T21:49:01.739Z,5.80
2018-09-08T21:51:03.927Z,5.67
2018-09-08T21:53:06.694Z,5.97
2018-09-08T21:55:09.072Z,5.70
2018-09-08T21:57:11.222Z,5.50
2018-09-08T21:59:13.675Z,5.57
2018-09-08T22:01:21.553Z,5.83
2018-09-08T22:03:25.026Z,5.97
2018-09-08T22:05:27.298Z,5.80
2018-09-08T22:07:29.490Z,6.00
2018-09-08T22:09:31.699Z,5.83
2018-09-08T22:11:33.867Z,5.70
2018-09-08T22:13:36.164Z,5.60
2018-09-08T22:15:38.351Z,6.20
2018-09-08T22:17:40.539Z,5.27
2018-09-08T22:19:42.663Z,5.80
2018-09-08T22:21:44.843Z,5.90
2018-09-08T22:23:46.984Z,5.73
2018-09-08T22:25:49.222Z,6.73
2018-09-08T22:27:51.411Z,6.40
2018-09-08T22:29:53.580Z,6.40
2018-09-08T22:31:55.842Z,6.20
2018-09-08T22:33:58.071Z,6.50
2018-09-08T22:36:00.247Z,5.90
2018-09-08T22:38:03.198Z,6.30
2018-09-08T22:40:05.416Z,5.90
2018-09-08T22:42:07.541Z,5.37
2018-09-08T22:44:09.670Z,5.93
2018-09-08T22:46:11.859Z,6.27
2018-09-08T22:48:14.129Z,6.43
2018-09-08T22:50:16.290Z,6.63
2018-09-08T22:52:19.054Z,6.00
2018-09-08T22:54:21.224Z,6.13
2018-09-08T22:56:23.440Z,6.80
2018-09-08T22:58:25.584Z,6.20
2018-09-08T23:00:27.702Z,5.43
2018-09-08T23:02:29.839Z,6.33
2018-09-08T23:04:32.001Z,6.17
2018-09-08T23:06:34.488Z,6.50
2018-09-08T23:08:36.618Z,7.17
2018-09-08T23:10:38.767Z,6.37
2018-09-08T23:12:41.254Z,6.00
2018-09-08T23:14:43.417Z,7.10
2018-09-08T23:16:45.558Z,6.77
2018-09-08T23:18:47.797Z,6.30
2018-09-08T23:20:49.990Z,7.73
2018-09-08T23:22:52.132Z,6.67
2018-09-08T23:24:54.958Z,6.50
2018-09-08T23:26:57.102Z,7.13
2018-09-08T23:28:59.254Z,6.63
2018-09-08T23:31:01.480Z,6.30
2018-09-08T23:33:03.646Z,7.10
2018-09-08T23:35:05.832Z,6.90
2018-09-08T23:37:08.080Z,6.87
2018-09-08T23:39:10.254Z,6.77
2018-09-08T23:41:16.157Z,7.00
2018-09-08T23:43:18.554Z,6.37
2018-09-08T23:45:20.708Z,6.60
2018-09-08T23:47:22.883Z,7.63
2018-09-08T23:49:25.200Z,7.00
2018-09-08T23:51:27.347Z,7.00
2018-09-08T23:53:29.486Z,7.50
2018-09-08T23:55:31.663Z,7.47
2018-09-08T23:57:33.767Z,7.47
2018-09-08T23:59:35.941Z,9.10
